createdAt,value
2018-07-17T00:00:28.324Z,19.85
2018-07-17T00:02:54.642Z,19.85
2018-07-17T00:05:20.954Z,19.74
2018-07-17T00:07:47.279Z,19.70
2018-07-17T00:10:13.599Z,19.65
2018-07-17T00:12:40.003Z,19.60
2018-07-17T00:15:06.315Z,19.52
2018-07-17T00:17:32.630Z,19.63
2018-07-17T00:19:58.955Z,19.70
2018-07-17T00:22:25.271Z,19.78
2018-07-17T00:24:51.584Z,19.65
2018-07-17T00:27:17.895Z,19.58
2018-07-17T00:29:44.206Z,19.60
2018-07-17T00:32:10.525Z,19.56
2018-07-17T00:34:36.858Z,19.67
2018-07-17T00:37:03.218Z,19.67
2018-07-17T00:39:31.523Z,19.55
2018-07-17T00:41:55.997Z,19.42
2018-07-17T00:44:22.593Z,19.26
2018-07-17T00:46:48.906Z,19.34
2018-07-17T00:49:15.221Z,19.33
2018-07-17T00:51:41.543Z,19.24
2018-07-17T00:54:07.850Z,19.20
2018-07-17T00:56:34.166Z,19.28
2018-07-17T00:59:00.471Z,19.37
2018-07-17T01:01:26.783Z,19.57
2018-07-17T01:03:53.098Z,19.71
2018-07-17T01:06:19.413Z,19.79
2018-07-17T01:08:45.730Z,20.04
2018-07-17T01:11:12.043Z,20.11
2018-07-17T01:13:38.357Z,20.02
2018-07-17T01:16:04.665Z,19.96
2018-07-17T01:18:30.980Z,19.93
2018-07-17T01:20:57.292Z,19.92
2018-07-17T01:23:23.643Z,19.86
2018-07-17T01:25:49.961Z,19.82
2018-07-17T01:28:16.273Z,19.84
2018-07-17T01:30:42.633Z,19.81
2018-07-17T01:33:08.959Z,19.94
2018-07-17T01:35:35.267Z,20.08
2018-07-17T01:38:01.578Z,20.25
2018-07-17T01:40:27.892Z,20.31
2018-07-17T01:42:54.224Z,20.34
2018-07-17T01:45:20.512Z,20.34
2018-07-17T01:47:46.820Z,20.42
2018-07-17T01:50:13.133Z,20.34
2018-07-17T01:52:39.440Z,20.30
2018-07-17T01:55:05.756Z,20.33
2018-07-17T01:57:32.067Z,20.20
2018-07-17T01:59:58.384Z,20.10
2018-07-17T02:02:24.697Z,20.01
2018-07-17T02:04:51.081Z,20.00
2018-07-17T02:07:17.320Z,20.01
2018-07-17T02:09:43.636Z,19.93
2018-07-17T02:12:09.943Z,19.92
2018-07-17T02:14:36.300Z,19.99
2018-07-17T02:17:02.612Z,19.96
2018-07-17T02:19:28.931Z,19.87
2018-07-17T02:21:55.249Z,19.85
2018-07-17T02:24:21.555Z,19.83
2018-07-17T02:26:47.874Z,19.83
2018-07-17T02:29:14.187Z,19.73
2018-07-17T02:31:40.516Z,19.73
2018-07-17T02:34:06.826Z,19.83
2018-07-17T02:36:33.145Z,19.73
2018-07-17T02:38:59.461Z,19.78
2018-07-17T02:41:25.777Z,19.72
2018-07-17T02:43:52.088Z,19.67
2018-07-17T02:46:18.402Z,19.57
2018-07-17T02:48:44.717Z,19.38
2018-07-17T02:51:11.025Z,19.26
2018-07-17T02:53:37.337Z,19.09
2018-07-17T02:56:03.666Z,18.96
2018-07-17T02:58:29.975Z,18.83
2018-07-17T03:00:56.289Z,18.83
2018-07-17T03:03:22.602Z,18.87
2018-07-17T03:05:48.916Z,18.79
2018-07-17T03:08:15.239Z,18.59
2018-07-17T03:10:41.558Z,18.58
2018-07-17T03:13:07.877Z,18.59
2018-07-17T03:15:34.196Z,18.73
2018-07-17T03:18:00.508Z,18.73
2018-07-17T03:20:26.825Z,18.70
2018-07-17T03:22:53.128Z,18.69
2018-07-17T03:25:19.436Z,18.64
2018-07-17T03:27:45.749Z,18.55
2018-07-17T03:30:12.063Z,18.53
2018-07-17T03:32:38.377Z,18.58
2018-07-17T03:35:04.691Z,18.47
2018-07-17T03:37:31.005Z,18.44
2018-07-17T03:39:57.333Z,18.31
2018-07-17T03:42:23.651Z,18.17
2018-07-17T03:44:49.963Z,18.12
2018-07-17T03:47:16.314Z,18.24
2018-07-17T03:49:42.626Z,18.22
2018-07-17T03:52:08.940Z,18.25
2018-07-17T03:54:35.249Z,18.24
2018-07-17T03:57:01.568Z,18.20
2018-07-17T03:59:27.883Z,18.21
2018-07-17T04:01:54.203Z,18.21
2018-07-17T04:04:20.528Z,18.18
2018-07-17T04:06:46.862Z,18.18
2018-07-17T04:09:13.156Z,18.28
2018-07-17T04:11:39.468Z,18.36
2018-07-17T04:14:05.786Z,18.60
2018-07-17T04:16:32.096Z,18.72
2018-07-17T04:18:58.413Z,18.83
2018-07-17T04:21:24.728Z,18.92
2018-07-17T04:23:51.039Z,18.89
2018-07-17T04:26:17.356Z,19.00
2018-07-17T04:28:43.762Z,19.05
2018-07-17T04:31:10.064Z,19.20
2018-07-17T04:33:36.376Z,19.29
2018-07-17T04:36:02.695Z,19.45
2018-07-17T04:38:29.057Z,19.47
2018-07-17T04:40:55.365Z,19.45
2018-07-17T04:43:21.677Z,19.55
2018-07-17T04:45:47.995Z,19.55
2018-07-17T04:48:14.313Z,19.59
2018-07-17T04:50:40.635Z,19.74
2018-07-17T04:53:06.949Z,19.93
2018-07-17T04:55:33.280Z,19.97
2018-07-17T04:57:59.589Z,19.98
2018-07-17T05:00:25.947Z,20.12
2018-07-17T05:02:52.263Z,20.16
2018-07-17T05:05:18.619Z,20.29
2018-07-17T05:07:44.939Z,20.48
2018-07-17T05:10:11.265Z,20.71
2018-07-17T05:12:37.584Z,21.15
2018-07-17T05:15:03.896Z,21.49
2018-07-17T05:17:30.261Z,21.68
2018-07-17T05:19:56.573Z,22.03
2018-07-17T05:22:22.886Z,22.37
2018-07-17T05:24:49.203Z,22.59
2018-07-17T05:27:15.513Z,22.86
2018-07-17T05:29:41.859Z,22.83
2018-07-17T05:32:08.172Z,22.74
2018-07-17T05:34:34.485Z,23.36
2018-07-17T05:37:00.804Z,24.91
2018-07-17T05:39:27.124Z,26.36
2018-07-17T05:41:53.441Z,26.79
2018-07-17T05:44:19.763Z,26.98
2018-07-17T05:46:46.082Z,26.79
2018-07-17T05:49:12.402Z,26.34
2018-07-17T05:51:38.712Z,26.53
2018-07-17T05:54:05.032Z,27.14
2018-07-17T05:56:31.349Z,27.87
2018-07-17T05:58:57.666Z,28.02
2018-07-17T06:01:23.980Z,27.97
2018-07-17T06:03:50.305Z,28.16
2018-07-17T06:06:16.630Z,28.47
2018-07-17T06:08:42.987Z,28.52
2018-07-17T06:11:09.338Z,28.86
2018-07-17T06:13:35.653Z,29.15
2018-07-17T06:16:02.013Z,29.02
2018-07-17T06:18:28.323Z,28.64
2018-07-17T06:20:54.652Z,29.18
2018-07-17T06:23:20.994Z,29.51
2018-07-17T06:25:47.307Z,29.44
2018-07-17T06:28:13.617Z,28.76
2018-07-17T06:30:39.933Z,27.25
2018-07-17T06:33:06.260Z,26.28
2018-07-17T06:35:32.565Z,25.56
2018-07-17T06:37:58.888Z,25.46
2018-07-17T06:40:25.201Z,25.39
2018-07-17T06:42:51.512Z,25.06
2018-07-17T06:45:17.824Z,25.15
2018-07-17T06:47:44.141Z,25.02
2018-07-17T06:50:10.516Z,24.55
2018-07-17T06:52:36.781Z,24.38
2018-07-17T06:55:03.102Z,24.27
2018-07-17T06:57:29.471Z,24.30
2018-07-17T06:59:55.757Z,24.25
2018-07-17T07:02:22.070Z,24.15
2018-07-17T07:04:48.394Z,24.23
2018-07-17T07:07:14.717Z,24.28
2018-07-17T07:09:41.030Z,24.55
2018-07-17T07:12:07.370Z,24.92
2018-07-17T07:14:33.689Z,25.00
2018-07-17T07:17:01.109Z,24.84
2018-07-17T07:19:27.420Z,24.48
2018-07-17T07:21:53.729Z,24.41
2018-07-17T07:24:20.057Z,24.57
2018-07-17T07:26:46.384Z,24.58
2018-07-17T07:29:12.708Z,24.41
2018-07-17T07:31:39.024Z,24.29
2018-07-17T07:34:05.337Z,24.43
2018-07-17T07:36:31.656Z,24.46
2018-07-17T07:38:57.964Z,24.46
2018-07-17T07:41:24.276Z,24.34
2018-07-17T07:43:50.664Z,24.29
2018-07-17T07:46:16.992Z,24.08
2018-07-17T07:48:43.312Z,23.79
2018-07-17T07:51:09.635Z,23.56
2018-07-17T07:53:35.951Z,23.26
2018-07-17T07:56:02.270Z,22.78
2018-07-17T07:58:28.580Z,21.29
2018-07-17T08:00:54.895Z,20.32
2018-07-17T08:03:21.221Z,19.50
2018-07-17T08:05:47.550Z,19.10
2018-07-17T08:08:13.864Z,18.98
2018-07-17T08:10:40.223Z,18.94
2018-07-17T08:13:06.595Z,18.85
2018-07-17T08:15:32.957Z,19.08
2018-07-17T08:17:59.274Z,18.99
2018-07-17T08:20:25.590Z,18.89
2018-07-17T08:22:51.916Z,18.86
2018-07-17T08:25:18.225Z,18.85
2018-07-17T08:27:44.538Z,18.86
2018-07-17T08:30:10.913Z,18.68
2018-07-17T08:32:37.269Z,18.62
2018-07-17T08:35:03.633Z,18.67
2018-07-17T08:37:29.953Z,18.74
2018-07-17T08:39:56.454Z,18.63
2018-07-17T08:42:22.703Z,18.67
2018-07-17T08:44:49.047Z,18.69
2018-07-17T08:47:15.372Z,18.77
2018-07-17T08:49:41.685Z,18.80
2018-07-17T08:52:08.005Z,18.89
2018-07-17T08:54:34.333Z,18.89
2018-07-17T08:57:00.955Z,19.09
2018-07-17T08:59:27.268Z,19.34
2018-07-17T09:01:53.589Z,19.39
2018-07-17T09:04:19.901Z,19.58
2018-07-17T09:06:46.217Z,19.79
2018-07-17T09:09:12.535Z,19.96
2018-07-17T09:11:38.856Z,20.06
2018-07-17T09:14:05.177Z,20.20
2018-07-17T09:16:31.489Z,20.04
2018-07-17T09:18:57.807Z,19.99
2018-07-17T09:21:24.177Z,19.99
2018-07-17T09:23:50.439Z,19.87
2018-07-17T09:26:16.755Z,20.02
2018-07-17T09:28:43.074Z,20.07
2018-07-17T09:31:09.395Z,20.32
2018-07-17T09:33:35.768Z,20.38
2018-07-17T09:36:02.050Z,20.57
2018-07-17T09:38:28.365Z,20.74
2018-07-17T09:40:54.740Z,21.22
2018-07-17T09:43:21.056Z,21.30
2018-07-17T09:45:47.404Z,21.32
2018-07-17T09:48:13.718Z,21.38
2018-07-17T09:50:40.098Z,21.72
2018-07-17T09:53:06.453Z,22.09
2018-07-17T09:55:32.759Z,22.74
2018-07-17T09:57:59.133Z,22.56
2018-07-17T10:00:25.445Z,22.84
2018-07-17T10:02:51.757Z,22.79
2018-07-17T10:05:18.101Z,22.48
2018-07-17T10:07:44.416Z,22.13
2018-07-17T10:10:10.749Z,22.15
2018-07-17T10:12:37.116Z,22.37
2018-07-17T10:15:03.439Z,22.93
2018-07-17T10:17:29.790Z,23.75
2018-07-17T10:19:56.112Z,24.29
2018-07-17T10:22:22.431Z,24.16
2018-07-17T10:24:48.738Z,24.78
2018-07-17T10:27:15.056Z,24.83
2018-07-17T10:29:41.373Z,24.65
2018-07-17T10:32:07.730Z,24.94
2018-07-17T10:34:34.046Z,25.50
2018-07-17T10:37:00.361Z,25.99
2018-07-17T10:39:26.737Z,26.17
2018-07-17T10:41:53.050Z,25.68
2018-07-17T10:44:19.365Z,25.85
2018-07-17T10:46:45.727Z,26.02
2018-07-17T10:49:12.078Z,26.78
2018-07-17T10:51:38.435Z,26.02
2018-07-17T10:54:04.710Z,26.13
2018-07-17T10:56:31.027Z,25.86
2018-07-17T10:58:57.448Z,25.79
2018-07-17T11:01:23.776Z,26.07
2018-07-17T11:03:50.080Z,26.08
2018-07-17T11:06:16.397Z,25.87
2018-07-17T11:08:42.708Z,25.57
2018-07-17T11:11:09.052Z,25.56
2018-07-17T11:13:35.365Z,26.08
2018-07-17T11:16:01.681Z,26.21
2018-07-17T11:18:27.999Z,26.72
2018-07-17T11:20:54.329Z,27.18
2018-07-17T11:23:20.646Z,26.95
2018-07-17T11:25:46.961Z,26.23
2018-07-17T11:28:13.277Z,26.27
2018-07-17T11:30:39.593Z,26.75
2018-07-17T11:33:05.908Z,26.93
2018-07-17T11:35:32.221Z,26.84
2018-07-17T11:37:58.532Z,26.99
2018-07-17T11:40:24.846Z,26.56
2018-07-17T11:42:51.157Z,26.47
2018-07-17T11:45:17.474Z,26.77
2018-07-17T11:47:43.849Z,27.01
2018-07-17T11:50:10.115Z,26.97
2018-07-17T11:52:36.430Z,27.30
2018-07-17T11:55:02.785Z,27.51
2018-07-17T11:57:29.148Z,27.36
2018-07-17T11:59:55.455Z,27.41
2018-07-17T12:02:21.767Z,27.80
2018-07-17T12:04:48.087Z,27.74
2018-07-17T12:07:14.435Z,27.37
2018-07-17T12:09:40.747Z,27.21
2018-07-17T12:12:07.107Z,26.99
2018-07-17T12:14:33.455Z,26.85
2018-07-17T12:16:59.770Z,26.86
2018-07-17T12:19:26.085Z,26.73
2018-07-17T12:21:52.395Z,26.11
2018-07-17T12:24:18.717Z,25.65
2018-07-17T12:26:45.037Z,25.46
2018-07-17T12:29:11.381Z,25.37
2018-07-17T12:31:37.703Z,25.44
2018-07-17T12:34:04.030Z,25.55
2018-07-17T12:36:30.341Z,25.70
2018-07-17T12:38:56.658Z,25.55
2018-07-17T12:41:22.977Z,25.35
2018-07-17T12:43:49.289Z,25.28
2018-07-17T12:46:15.601Z,25.29
2018-07-17T12:48:41.962Z,25.28
2018-07-17T12:51:08.280Z,24.99
2018-07-17T12:53:34.610Z,24.76
2018-07-17T12:56:00.969Z,24.39
2018-07-17T12:58:27.294Z,23.32
2018-07-17T13:00:53.609Z,22.20
2018-07-17T13:03:19.938Z,21.74
2018-07-17T13:05:46.293Z,21.29
2018-07-17T13:08:12.607Z,21.09
2018-07-17T13:10:38.915Z,21.11
2018-07-17T13:13:05.242Z,21.20
2018-07-17T13:15:31.569Z,21.55
2018-07-17T13:17:58.025Z,21.51
2018-07-17T13:20:24.210Z,21.53
2018-07-17T13:22:50.527Z,21.69
2018-07-17T13:25:16.841Z,22.08
2018-07-17T13:27:43.166Z,22.19
2018-07-17T13:30:09.497Z,21.96
2018-07-17T13:32:35.813Z,22.00
2018-07-17T13:35:02.135Z,22.83
2018-07-17T13:37:28.454Z,22.79
2018-07-17T13:39:54.776Z,23.31
2018-07-17T13:42:21.096Z,23.24
2018-07-17T13:44:47.473Z,22.78
2018-07-17T13:47:13.722Z,22.84
2018-07-17T13:49:40.077Z,22.82
2018-07-17T13:52:06.445Z,23.03
2018-07-17T13:54:32.708Z,23.25
2018-07-17T13:56:59.017Z,23.53
2018-07-17T13:59:25.378Z,23.88
2018-07-17T14:01:51.688Z,24.19
2018-07-17T14:04:18.079Z,24.42
2018-07-17T14:06:44.407Z,24.60
2018-07-17T14:09:10.682Z,24.70
2018-07-17T14:11:36.993Z,24.90
2018-07-17T14:14:03.312Z,25.00
2018-07-17T14:16:29.629Z,25.06
2018-07-17T14:18:55.953Z,25.11
2018-07-17T14:21:22.276Z,25.20
2018-07-17T14:23:48.726Z,25.26
2018-07-17T14:26:14.966Z,25.36
2018-07-17T14:28:41.284Z,25.44
2018-07-17T14:31:07.640Z,25.35
2018-07-17T14:33:33.976Z,25.33
2018-07-17T14:36:00.289Z,25.27
2018-07-17T14:38:26.604Z,25.18
2018-07-17T14:40:52.946Z,25.18
2018-07-17T14:43:19.257Z,25.17
2018-07-17T14:45:45.567Z,25.16
2018-07-17T14:48:11.914Z,25.19
2018-07-17T14:50:38.195Z,25.23
2018-07-17T14:53:04.508Z,25.21
2018-07-17T14:55:30.861Z,25.22
2018-07-17T14:57:57.180Z,25.16
2018-07-17T15:00:23.541Z,25.10
2018-07-17T15:02:49.855Z,25.14
2018-07-17T15:05:16.169Z,25.14
2018-07-17T15:07:42.503Z,25.21
2018-07-17T15:10:08.816Z,25.20
2018-07-17T15:12:35.132Z,25.10
2018-07-17T15:15:01.443Z,25.07
2018-07-17T15:17:27.825Z,25.03
2018-07-17T15:19:54.137Z,24.99
2018-07-17T15:22:20.498Z,25.03
2018-07-17T15:24:46.764Z,25.04
2018-07-17T15:27:13.084Z,25.05
2018-07-17T15:29:39.410Z,25.07
2018-07-17T15:32:05.779Z,25.15
2018-07-17T15:34:32.060Z,25.01
2018-07-17T15:36:58.433Z,24.86
2018-07-17T15:39:24.744Z,24.71
2018-07-17T15:41:51.063Z,24.71
2018-07-17T15:44:17.402Z,24.77
2018-07-17T15:46:43.713Z,24.71
2018-07-17T15:49:10.033Z,24.69
2018-07-17T15:51:36.345Z,24.66
2018-07-17T15:54:02.715Z,24.64
2018-07-17T15:56:28.971Z,24.61
2018-07-17T15:58:55.288Z,24.63
2018-07-17T16:01:21.600Z,24.69
2018-07-17T16:03:47.922Z,24.56
2018-07-17T16:06:14.297Z,24.45
2018-07-17T16:08:40.591Z,24.46
2018-07-17T16:11:06.916Z,24.40
2018-07-17T16:13:33.332Z,24.31
2018-07-17T16:15:59.557Z,24.25
2018-07-17T16:18:25.879Z,24.14
2018-07-17T16:20:52.192Z,24.06
2018-07-17T16:23:18.510Z,23.99
2018-07-17T16:25:44.826Z,23.94
2018-07-17T16:28:11.137Z,23.89
2018-07-17T16:30:37.580Z,23.87
2018-07-17T16:33:04.125Z,23.87
2018-07-17T16:35:30.444Z,23.84
2018-07-17T16:37:56.763Z,23.77
2018-07-17T16:40:23.073Z,23.74
2018-07-17T16:42:49.403Z,23.71
2018-07-17T16:45:15.754Z,23.64
2018-07-17T16:47:42.058Z,23.59
2018-07-17T16:50:08.371Z,23.50
2018-07-17T16:52:34.698Z,23.44
2018-07-17T16:55:01.058Z,23.36
2018-07-17T16:57:27.384Z,23.30
2018-07-17T16:59:53.746Z,23.21
2018-07-17T17:02:20.074Z,23.13
2018-07-17T17:04:46.402Z,23.04
2018-07-17T17:07:12.747Z,22.98
2018-07-17T17:09:39.119Z,22.91
2018-07-17T17:12:05.434Z,22.86
2018-07-17T17:14:31.756Z,22.84
2018-07-17T17:16:58.081Z,22.83
2018-07-17T17:19:24.398Z,22.83
2018-07-17T17:21:50.729Z,22.78
2018-07-17T17:24:17.184Z,22.76
2018-07-17T17:26:43.396Z,22.68
2018-07-17T17:29:09.754Z,22.66
2018-07-17T17:31:36.105Z,22.64
2018-07-17T17:34:02.429Z,22.62
2018-07-17T17:36:28.769Z,22.59
2018-07-17T17:38:55.058Z,22.54
2018-07-17T17:41:21.374Z,22.51
2018-07-17T17:43:47.690Z,22.46
2018-07-17T17:46:14.022Z,22.43
2018-07-17T17:48:40.332Z,22.40
2018-07-17T17:51:07.953Z,22.40
2018-07-17T17:53:33.002Z,22.39
2018-07-17T17:55:59.323Z,22.39
2018-07-17T17:58:25.953Z,22.36
2018-07-17T18:00:52.265Z,22.32
2018-07-17T18:03:18.617Z,22.32
2018-07-17T18:05:44.936Z,22.28
2018-07-17T18:08:11.256Z,22.29
2018-07-17T18:10:37.576Z,22.28
2018-07-17T18:13:03.905Z,22.27
2018-07-17T18:15:30.233Z,22.20
2018-07-17T18:17:56.561Z,22.15
2018-07-17T18:20:22.873Z,22.11
2018-07-17T18:22:49.200Z,22.10
2018-07-17T18:25:15.908Z,22.08
2018-07-17T18:27:42.233Z,22.05
2018-07-17T18:30:08.604Z,22.05
2018-07-17T18:32:34.923Z,22.01
2018-07-17T18:35:01.238Z,21.99
2018-07-17T18:37:27.560Z,21.92
2018-07-17T18:39:56.030Z,21.89
2018-07-17T18:42:22.347Z,21.85
2018-07-17T18:44:48.658Z,21.85
2018-07-17T18:47:14.981Z,21.81
2018-07-17T18:49:41.295Z,21.77
2018-07-17T18:52:07.721Z,21.74
2018-07-17T18:54:34.022Z,21.69
2018-07-17T18:57:00.333Z,21.69
2018-07-17T18:59:26.657Z,21.65
2018-07-17T19:01:52.967Z,21.64
2018-07-17T19:04:19.288Z,21.63
2018-07-17T19:06:45.598Z,21.59
2018-07-17T19:09:11.927Z,21.56
2018-07-17T19:11:38.250Z,21.51
2018-07-17T19:14:04.607Z,21.53
2018-07-17T19:16:31.007Z,21.53
2018-07-17T19:18:57.321Z,21.48
2018-07-17T19:21:23.645Z,21.47
2018-07-17T19:23:49.952Z,21.45
2018-07-17T19:26:16.268Z,21.39
2018-07-17T19:28:42.616Z,21.36
2018-07-17T19:31:08.933Z,21.34
2018-07-17T19:33:35.258Z,21.32
2018-07-17T19:36:01.588Z,21.28
2018-07-17T19:38:27.900Z,21.32
2018-07-17T19:40:54.293Z,21.35
2018-07-17T19:43:20.564Z,21.29
2018-07-17T19:45:46.880Z,21.25
2018-07-17T19:48:13.189Z,21.27
2018-07-17T19:50:39.500Z,21.27
2018-07-17T19:53:05.817Z,21.29
2018-07-17T19:55:32.124Z,21.31
2018-07-17T19:57:58.435Z,21.36
2018-07-17T20:00:24.764Z,21.36
2018-07-17T20:02:51.093Z,21.34
2018-07-17T20:05:17.432Z,21.36
2018-07-17T20:07:43.759Z,21.27
2018-07-17T20:10:10.112Z,21.21
2018-07-17T20:12:36.436Z,21.18
2018-07-17T20:15:02.783Z,21.13
2018-07-17T20:17:29.110Z,21.12
2018-07-17T20:19:55.448Z,21.07
2018-07-17T20:22:21.774Z,21.04
2018-07-17T20:24:48.151Z,21.06
2018-07-17T20:27:14.419Z,21.06
2018-07-17T20:29:40.732Z,21.04
2018-07-17T20:32:07.045Z,21.01
2018-07-17T20:34:33.375Z,20.96
2018-07-17T20:36:59.698Z,20.91
2018-07-17T20:39:26.013Z,20.84
2018-07-17T20:41:52.341Z,20.78
2018-07-17T20:44:18.694Z,20.77
2018-07-17T20:46:45.016Z,20.77
2018-07-17T20:49:11.313Z,20.76
2018-07-17T20:51:37.629Z,20.76
2018-07-17T20:54:03.936Z,20.74
2018-07-17T20:56:30.261Z,20.70
2018-07-17T20:58:56.579Z,20.70
2018-07-17T21:01:22.924Z,20.67
2018-07-17T21:03:49.265Z,20.66
2018-07-17T21:06:15.622Z,20.60
2018-07-17T21:08:41.938Z,20.58
2018-07-17T21:11:08.284Z,20.54
2018-07-17T21:13:34.629Z,20.49
2018-07-17T21:16:00.970Z,20.50
2018-07-17T21:18:27.314Z,20.49
2018-07-17T21:20:53.654Z,20.46
2018-07-17T21:23:19.970Z,20.42
2018-07-17T21:25:46.298Z,20.37
2018-07-17T21:28:12.612Z,20.35
2018-07-17T21:30:38.992Z,20.35
2018-07-17T21:33:05.312Z,20.29
2018-07-17T21:35:31.671Z,20.26
2018-07-17T21:37:57.986Z,20.30
2018-07-17T21:40:24.426Z,20.27
2018-07-17T21:42:50.690Z,20.24
2018-07-17T21:45:17.013Z,20.19
2018-07-17T21:47:43.405Z,20.20
2018-07-17T21:50:09.723Z,20.11
2018-07-17T21:52:36.047Z,20.11
2018-07-17T21:55:02.389Z,20.11
2018-07-17T21:57:28.728Z,20.13
2018-07-17T21:59:55.046Z,20.21
2018-07-17T22:02:21.394Z,20.19
2018-07-17T22:04:47.735Z,20.25
2018-07-17T22:07:14.058Z,20.21
2018-07-17T22:09:40.376Z,20.15
2018-07-17T22:12:06.695Z,20.20
2018-07-17T22:14:33.036Z,20.26
2018-07-17T22:16:59.355Z,20.20
2018-07-17T22:19:25.676Z,20.18
2018-07-17T22:21:51.999Z,20.06
2018-07-17T22:24:18.310Z,19.94
2018-07-17T22:26:44.633Z,19.86
2018-07-17T22:29:10.950Z,19.86
2018-07-17T22:31:37.271Z,19.80
2018-07-17T22:34:03.586Z,19.77
2018-07-17T22:36:29.936Z,19.76
2018-07-17T22:38:56.271Z,19.75
2018-07-17T22:41:22.611Z,19.66
2018-07-17T22:43:48.947Z,19.58
2018-07-17T22:46:15.293Z,19.57
2018-07-17T22:48:41.611Z,19.59
2018-07-17T22:51:07.930Z,19.55
2018-07-17T22:53:34.251Z,19.52
2018-07-17T22:56:00.571Z,19.54
2018-07-17T22:58:26.887Z,19.52
2018-07-17T23:00:53.224Z,19.54
2018-07-17T23:03:19.568Z,19.49
2018-07-17T23:05:45.912Z,19.51
2018-07-17T23:08:12.252Z,19.50
2018-07-17T23:10:38.600Z,19.49
2018-07-17T23:13:04.981Z,19.52
2018-07-17T23:15:31.329Z,19.48
2018-07-17T23:17:57.716Z,19.50
2018-07-17T23:20:24.025Z,19.46
2018-07-17T23:22:50.368Z,19.44
2018-07-17T23:25:16.763Z,19.42
2018-07-17T23:27:43.103Z,19.40
2018-07-17T23:30:09.489Z,19.40
2018-07-17T23:32:35.803Z,19.43
2018-07-17T23:35:02.120Z,19.42
2018-07-17T23:37:28.435Z,19.40
2018-07-17T23:39:54.754Z,19.41
2018-07-17T23:42:21.091Z,19.34
2018-07-17T23:44:47.437Z,19.35
2018-07-17T23:47:13.753Z,19.36
2018-07-17T23:49:40.074Z,19.34
2018-07-17T23:52:06.412Z,19.37
2018-07-17T23:54:32.757Z,19.37
2018-07-17T23:56:59.081Z,19.38
2018-07-17T23:59:25.396Z,19.40
